createdAt,value
2018-07-14T00:01:47.387Z,18.29
2018-07-14T00:04:16.750Z,18.24
2018-07-14T00:06:46.087Z,18.07
2018-07-14T00:09:15.595Z,18.15
2018-07-14T00:11:44.945Z,18.30
2018-07-14T00:14:14.313Z,18.36
2018-07-14T00:16:43.727Z,18.38
2018-07-14T00:19:13.767Z,18.45
2018-07-14T00:21:43.097Z,18.33
2018-07-14T00:24:12.445Z,18.29
2018-07-14T00:26:41.943Z,18.39
2018-07-14T00:29:11.270Z,18.31
2018-07-14T00:31:40.642Z,18.20
2018-07-14T00:34:10.049Z,18.23
2018-07-14T00:36:39.363Z,18.07
2018-07-14T00:39:08.729Z,18.05
2018-07-14T00:41:38.100Z,18.10
2018-07-14T00:44:07.368Z,18.01
2018-07-14T00:46:36.691Z,18.01
2018-07-14T00:49:06.259Z,18.02
2018-07-14T00:51:35.630Z,18.03
2018-07-14T00:54:05.025Z,17.93
2018-07-14T00:56:34.394Z,18.01
2018-07-14T00:59:03.706Z,17.99
2018-07-14T01:01:32.979Z,17.77
2018-07-14T01:04:02.386Z,17.87
2018-07-14T01:06:31.678Z,17.68
2018-07-14T01:09:00.974Z,17.86
2018-07-14T01:11:30.290Z,17.92
2018-07-14T01:13:59.577Z,17.95
2018-07-14T01:16:28.870Z,18.11
2018-07-14T01:18:58.208Z,18.06
2018-07-14T01:21:27.527Z,17.95
2018-07-14T01:23:56.573Z,17.99
2018-07-14T01:26:26.207Z,17.91
2018-07-14T01:28:55.850Z,18.01
2018-07-14T01:31:25.189Z,17.93
2018-07-14T01:33:54.519Z,18.01
2018-07-14T01:36:23.906Z,18.00
2018-07-14T01:38:53.343Z,17.95
2018-07-14T01:41:22.741Z,17.88
2018-07-14T01:43:51.806Z,17.91
2018-07-14T01:46:21.125Z,18.01
2018-07-14T01:48:50.820Z,17.88
2018-07-14T01:51:20.153Z,17.94
2018-07-14T01:53:49.507Z,17.85
2018-07-14T01:56:18.856Z,17.87
2018-07-14T01:58:48.214Z,17.85
2018-07-14T02:01:17.556Z,17.80
2018-07-14T02:03:46.962Z,17.65
2018-07-14T02:06:16.330Z,17.63
2018-07-14T02:08:45.667Z,17.62
2018-07-14T02:11:15.676Z,17.74
2018-07-14T02:13:45.014Z,17.59
2018-07-14T02:16:14.391Z,17.50
2018-07-14T02:18:43.716Z,17.52
2018-07-14T02:21:13.028Z,17.40
2018-07-14T02:23:42.341Z,17.32
2018-07-14T02:26:11.690Z,17.54
2018-07-14T02:28:40.991Z,17.57
2018-07-14T02:31:10.331Z,17.53
2018-07-14T02:33:40.195Z,17.53
2018-07-14T02:36:09.535Z,17.55
2018-07-14T02:38:38.848Z,17.68
2018-07-14T02:41:08.271Z,17.52
2018-07-14T02:43:37.628Z,17.48
2018-07-14T02:46:07.042Z,17.57
2018-07-14T02:48:36.407Z,17.63
2018-07-14T02:51:05.758Z,17.50
2018-07-14T02:53:35.149Z,17.66
2018-07-14T02:56:04.622Z,17.72
2018-07-14T02:58:33.952Z,17.67
2018-07-14T03:01:03.323Z,17.53
2018-07-14T03:03:32.748Z,17.55
2018-07-14T03:06:01.843Z,17.46
2018-07-14T03:08:31.318Z,17.38
2018-07-14T03:11:00.678Z,17.44
2018-07-14T03:13:30.007Z,17.43
2018-07-14T03:15:59.382Z,17.36
2018-07-14T03:18:29.265Z,17.13
2018-07-14T03:20:58.620Z,17.02
2018-07-14T03:23:27.974Z,16.87
2018-07-14T03:25:57.330Z,16.70
2018-07-14T03:28:26.597Z,16.79
2018-07-14T03:30:55.932Z,16.83
2018-07-14T03:33:25.273Z,16.89
2018-07-14T03:35:54.605Z,16.85
2018-07-14T03:38:24.084Z,16.81
2018-07-14T03:40:53.787Z,16.71
2018-07-14T03:43:23.149Z,16.43
2018-07-14T03:45:52.516Z,16.68
2018-07-14T03:48:21.912Z,16.68
2018-07-14T03:50:51.448Z,16.67
2018-07-14T03:53:20.726Z,16.53
2018-07-14T03:55:50.111Z,16.66
2018-07-14T03:58:19.402Z,16.69
2018-07-14T04:00:48.706Z,16.78
2018-07-14T04:03:21.651Z,16.73
2018-07-14T04:05:53.220Z,17.13
2018-07-14T04:08:25.299Z,17.22
2018-07-14T04:10:54.604Z,17.43
2018-07-14T04:13:24.321Z,17.52
2018-07-14T04:15:53.666Z,17.48
2018-07-14T04:18:22.945Z,17.46
2018-07-14T04:20:52.294Z,17.20
2018-07-14T04:23:22.135Z,17.30
2018-07-14T04:25:51.462Z,17.13
2018-07-14T04:28:20.759Z,17.22
2018-07-14T04:30:50.041Z,17.34
2018-07-14T04:33:19.351Z,17.37
2018-07-14T04:35:49.179Z,17.55
2018-07-14T04:38:18.314Z,17.83
2018-07-14T04:40:47.658Z,17.75
2018-07-14T04:43:16.982Z,17.87
2018-07-14T04:45:46.696Z,17.96
2018-07-14T04:48:16.021Z,17.98
2018-07-14T04:50:45.467Z,18.11
2018-07-14T04:53:14.927Z,17.92
2018-07-14T04:55:44.159Z,17.91
2018-07-14T04:58:13.493Z,17.89
2018-07-14T05:00:42.810Z,17.90
2018-07-14T05:03:11.882Z,18.02
2018-07-14T05:05:41.195Z,18.22
2018-07-14T05:08:11.187Z,18.12
2018-07-14T05:10:40.523Z,18.40
2018-07-14T05:13:09.876Z,18.48
2018-07-14T05:15:39.224Z,18.60
2018-07-14T05:18:08.552Z,18.61
2018-07-14T05:20:37.848Z,18.52
2018-07-14T05:23:07.233Z,18.59
2018-07-14T05:25:36.600Z,18.44
2018-07-14T05:28:06.032Z,18.49
2018-07-14T05:30:35.477Z,18.58
2018-07-14T05:33:04.876Z,18.82
2018-07-14T05:35:34.820Z,18.82
2018-07-14T05:38:04.466Z,18.80
2018-07-14T05:40:33.848Z,18.70
2018-07-14T05:43:03.115Z,18.84
2018-07-14T05:45:32.535Z,19.11
2018-07-14T05:48:01.854Z,19.25
2018-07-14T05:50:31.119Z,19.16
2018-07-14T05:53:00.835Z,19.12
2018-07-14T05:55:30.184Z,19.04
2018-07-14T05:57:59.705Z,19.28
2018-07-14T06:00:29.096Z,19.25
2018-07-14T06:02:58.428Z,19.25
2018-07-14T06:05:27.735Z,19.39
2018-07-14T06:07:57.079Z,19.26
2018-07-14T06:10:26.463Z,19.42
2018-07-14T06:12:55.758Z,19.40
2018-07-14T06:15:25.436Z,19.44
2018-07-14T06:17:54.750Z,19.51
2018-07-14T06:20:24.037Z,19.67
2018-07-14T06:22:53.382Z,19.49
2018-07-14T06:25:22.712Z,19.55
2018-07-14T06:27:52.043Z,19.81
2018-07-14T06:30:21.858Z,19.73
2018-07-14T06:32:51.265Z,19.91
2018-07-14T06:35:20.589Z,20.14
2018-07-14T06:37:49.955Z,20.22
2018-07-14T06:40:19.263Z,20.00
2018-07-14T06:42:48.554Z,19.92
2018-07-14T06:45:17.874Z,19.66
2018-07-14T06:47:47.198Z,20.00
2018-07-14T06:50:16.472Z,20.36
2018-07-14T06:52:45.941Z,20.41
2018-07-14T06:55:15.312Z,20.74
2018-07-14T06:57:44.738Z,20.93
2018-07-14T07:00:24.503Z,20.98
2018-07-14T07:02:53.849Z,21.04
2018-07-14T07:05:23.242Z,21.16
2018-07-14T07:07:52.564Z,21.31
2018-07-14T07:10:21.916Z,21.29
2018-07-14T07:12:51.209Z,21.35
2018-07-14T07:15:20.605Z,21.53
2018-07-14T07:17:49.965Z,21.47
2018-07-14T07:20:19.711Z,21.63
2018-07-14T07:22:49.031Z,21.65
2018-07-14T07:25:18.367Z,21.56
2018-07-14T07:27:47.791Z,21.53
2018-07-14T07:30:17.247Z,21.47
2018-07-14T07:32:46.743Z,21.59
2018-07-14T07:35:15.941Z,21.68
2018-07-14T07:37:45.426Z,21.81
2018-07-14T07:40:14.804Z,21.77
2018-07-14T07:42:44.352Z,21.84
2018-07-14T07:45:13.693Z,21.95
2018-07-14T07:47:43.052Z,22.01
2018-07-14T07:50:12.460Z,21.94
2018-07-14T07:52:41.608Z,21.97
2018-07-14T07:55:10.931Z,22.10
2018-07-14T07:57:40.315Z,22.19
2018-07-14T08:00:09.859Z,22.30
2018-07-14T08:02:39.404Z,22.13
2018-07-14T08:05:09.020Z,22.06
2018-07-14T08:07:38.410Z,22.32
2018-07-14T08:10:07.986Z,22.17
2018-07-14T08:12:37.400Z,22.33
2018-07-14T08:15:06.786Z,22.72
2018-07-14T08:17:36.187Z,22.94
2018-07-14T08:20:05.907Z,23.15
2018-07-14T08:22:35.240Z,23.64
2018-07-14T08:25:07.443Z,23.58
2018-07-14T08:27:36.710Z,23.87
2018-07-14T08:30:06.382Z,23.83
2018-07-14T08:32:35.723Z,24.16
2018-07-14T08:35:05.190Z,24.00
2018-07-14T08:37:34.591Z,24.07
2018-07-14T08:40:04.206Z,24.23
2018-07-14T08:42:33.593Z,24.22
2018-07-14T08:45:02.904Z,24.13
2018-07-14T08:47:32.542Z,24.23
2018-07-14T08:50:01.908Z,24.05
2018-07-14T08:52:31.307Z,23.90
2018-07-14T08:55:00.772Z,24.24
2018-07-14T08:57:30.661Z,24.54
2018-07-14T09:00:00.037Z,24.83
2018-07-14T09:02:29.684Z,24.83
2018-07-14T09:04:59.125Z,24.88
2018-07-14T09:07:28.549Z,24.66
2018-07-14T09:09:58.119Z,24.67
2018-07-14T09:12:27.957Z,24.57
2018-07-14T09:14:57.394Z,24.80
2018-07-14T09:17:26.782Z,24.95
2018-07-14T09:19:56.198Z,24.70
2018-07-14T09:22:25.583Z,24.65
2018-07-14T09:24:54.919Z,24.45
2018-07-14T09:27:24.269Z,24.32
2018-07-14T09:29:53.586Z,24.11
2018-07-14T09:32:23.319Z,24.16
2018-07-14T09:34:52.675Z,23.81
2018-07-14T09:37:21.980Z,23.79
2018-07-14T09:39:51.382Z,23.63
2018-07-14T09:42:20.743Z,23.60
2018-07-14T09:44:50.091Z,23.60
2018-07-14T09:47:19.434Z,23.65
2018-07-14T09:49:48.783Z,23.27
2018-07-14T09:52:18.143Z,23.44
2018-07-14T09:54:48.072Z,23.41
2018-07-14T09:57:17.376Z,23.72
2018-07-14T09:59:46.731Z,24.29
2018-07-14T10:02:16.183Z,24.41
2018-07-14T10:04:45.521Z,24.58
2018-07-14T10:07:14.835Z,24.71
2018-07-14T10:09:44.204Z,25.05
2018-07-14T10:12:13.633Z,25.14
2018-07-14T10:14:42.997Z,25.04
2018-07-14T10:17:13.062Z,25.20
2018-07-14T10:19:42.413Z,25.26
2018-07-14T10:22:11.822Z,25.06
2018-07-14T10:24:41.138Z,25.00
2018-07-14T10:27:10.581Z,25.19
2018-07-14T10:29:40.123Z,25.18
2018-07-14T10:32:10.915Z,25.11
2018-07-14T10:34:40.268Z,24.95
2018-07-14T10:37:09.804Z,25.16
2018-07-14T10:39:39.417Z,25.01
2018-07-14T10:42:08.828Z,24.65
2018-07-14T10:44:38.241Z,24.67
2018-07-14T10:47:07.707Z,24.55
2018-07-14T10:49:37.128Z,24.71
2018-07-14T10:52:06.779Z,24.61
2018-07-14T10:54:36.246Z,24.25
2018-07-14T10:57:05.798Z,24.03
2018-07-14T10:59:35.174Z,24.16
2018-07-14T11:02:04.759Z,24.28
2018-07-14T11:04:34.206Z,24.01
2018-07-14T11:07:06.502Z,24.06
2018-07-14T11:09:36.007Z,23.56
2018-07-14T11:12:05.385Z,23.48
2018-07-14T11:14:34.845Z,23.60
2018-07-14T11:17:04.579Z,23.66
2018-07-14T11:19:33.853Z,23.79
2018-07-14T11:22:04.399Z,23.87
2018-07-14T11:24:33.749Z,24.00
2018-07-14T11:27:03.225Z,24.51
2018-07-14T11:29:32.660Z,25.07
2018-07-14T11:32:02.083Z,25.22
2018-07-14T11:34:31.469Z,25.48
2018-07-14T11:37:00.907Z,25.66
2018-07-14T11:39:30.485Z,26.13
2018-07-14T11:41:59.904Z,26.17
2018-07-14T11:44:29.549Z,26.18
2018-07-14T11:47:00.155Z,26.23
2018-07-14T11:49:30.352Z,26.58
2018-07-14T11:52:00.180Z,26.10
2018-07-14T11:54:29.902Z,26.40
2018-07-14T11:56:59.478Z,26.53
2018-07-14T11:59:29.138Z,26.51
2018-07-14T12:01:58.687Z,26.37
2018-07-14T12:04:28.564Z,26.53
2018-07-14T12:06:58.078Z,26.65
2018-07-14T12:09:27.450Z,26.78
2018-07-14T12:11:56.981Z,26.93
2018-07-14T12:14:26.420Z,27.22
2018-07-14T12:16:55.913Z,27.56
2018-07-14T12:19:25.307Z,27.68
2018-07-14T12:21:54.784Z,27.28
2018-07-14T12:24:24.159Z,27.62
2018-07-14T12:26:53.827Z,27.97
2018-07-14T12:29:23.159Z,27.98
2018-07-14T12:31:52.505Z,27.88
2018-07-14T12:34:22.199Z,27.99
2018-07-14T12:36:52.249Z,28.02
2018-07-14T12:39:21.731Z,28.02
2018-07-14T12:41:51.243Z,28.32
2018-07-14T12:44:20.569Z,28.56
2018-07-14T12:46:50.109Z,28.53
2018-07-14T12:49:19.677Z,28.66
2018-07-14T12:51:49.195Z,28.33
2018-07-14T12:54:18.599Z,27.72
2018-07-14T12:56:47.976Z,27.19
2018-07-14T12:59:17.632Z,26.90
2018-07-14T13:01:47.052Z,26.87
2018-07-14T13:04:16.455Z,26.84
2018-07-14T13:06:45.924Z,26.71
2018-07-14T13:09:15.518Z,26.83
2018-07-14T13:11:45.232Z,26.57
2018-07-14T13:14:14.730Z,26.78
2018-07-14T13:16:44.202Z,27.05
2018-07-14T13:19:13.610Z,27.44
2018-07-14T13:21:43.056Z,27.77
2018-07-14T13:24:12.464Z,27.81
2018-07-14T13:26:41.876Z,27.85
2018-07-14T13:29:11.300Z,28.37
2018-07-14T13:31:40.803Z,28.56
2018-07-14T13:34:10.538Z,28.32
2018-07-14T13:36:39.963Z,28.40
2018-07-14T13:39:09.279Z,28.20
2018-07-14T13:41:38.660Z,28.39
2018-07-14T13:44:08.053Z,28.12
2018-07-14T13:46:37.398Z,28.45
2018-07-14T13:49:06.806Z,28.02
2018-07-14T13:51:36.207Z,28.14
2018-07-14T13:54:05.554Z,27.57
2018-07-14T13:56:35.422Z,27.51
2018-07-14T13:59:04.733Z,27.68
2018-07-14T14:01:34.139Z,27.74
2018-07-14T14:04:03.515Z,28.34
2018-07-14T14:06:32.925Z,28.61
2018-07-14T14:09:02.403Z,28.36
2018-07-14T14:11:31.804Z,27.93
2018-07-14T14:14:01.233Z,28.12
2018-07-14T14:16:30.470Z,27.99
2018-07-14T14:19:00.165Z,28.22
2018-07-14T14:21:29.615Z,28.28
2018-07-14T14:23:59.010Z,27.95
2018-07-14T14:26:28.884Z,28.10
2018-07-14T14:28:58.154Z,28.04
2018-07-14T14:31:27.473Z,28.02
2018-07-14T14:33:56.847Z,27.86
2018-07-14T14:36:26.155Z,27.88
2018-07-14T14:38:55.489Z,27.82
2018-07-14T14:41:24.911Z,27.56
2018-07-14T14:43:54.161Z,27.65
2018-07-14T14:46:23.487Z,27.55
2018-07-14T14:48:52.854Z,27.59
2018-07-14T14:51:22.199Z,27.34
2018-07-14T14:53:51.514Z,27.20
2018-07-14T14:56:20.796Z,27.17
2018-07-14T14:58:50.630Z,27.03
2018-07-14T15:01:19.927Z,27.10
2018-07-14T15:03:49.842Z,26.60
2018-07-14T15:06:19.193Z,26.29
2018-07-14T15:08:48.431Z,26.01
2018-07-14T15:11:17.948Z,25.57
2018-07-14T15:13:47.291Z,25.89
2018-07-14T15:16:16.590Z,26.19
2018-07-14T15:18:45.930Z,26.26
2018-07-14T15:21:15.222Z,26.16
2018-07-14T15:23:44.551Z,26.34
2018-07-14T15:26:13.999Z,25.89
2018-07-14T15:28:43.367Z,26.04
2018-07-14T15:31:12.708Z,26.08
2018-07-14T15:33:42.141Z,25.98
2018-07-14T15:36:11.469Z,25.96
2018-07-14T15:38:40.774Z,25.91
2018-07-14T15:41:09.976Z,25.86
2018-07-14T15:43:39.301Z,26.10
2018-07-14T15:46:08.622Z,26.37
2018-07-14T15:48:38.352Z,26.35
2018-07-14T15:51:07.685Z,26.44
2018-07-14T15:53:36.953Z,26.18
2018-07-14T15:56:06.955Z,25.95
2018-07-14T15:58:36.270Z,25.86
2018-07-14T16:01:05.638Z,25.75
2018-07-14T16:03:34.990Z,25.52
2018-07-14T16:06:04.379Z,25.64
2018-07-14T16:08:33.707Z,25.55
2018-07-14T16:11:03.627Z,25.53
2018-07-14T16:13:32.907Z,25.59
2018-07-14T16:16:02.245Z,25.71
2018-07-14T16:18:31.606Z,25.78
2018-07-14T16:21:00.882Z,25.78
2018-07-14T16:23:30.194Z,25.75
2018-07-14T16:25:59.547Z,25.68
2018-07-14T16:28:28.906Z,25.85
2018-07-14T16:30:58.209Z,25.68
2018-07-14T16:33:27.808Z,25.42
2018-07-14T16:35:57.137Z,25.33
2018-07-14T16:38:26.428Z,25.39
2018-07-14T16:40:55.773Z,25.49
2018-07-14T16:43:25.093Z,25.47
2018-07-14T16:45:54.500Z,25.50
2018-07-14T16:48:23.969Z,25.58
2018-07-14T16:50:53.526Z,25.24
2018-07-14T16:53:22.842Z,25.08
2018-07-14T16:55:52.480Z,24.88
2018-07-14T16:58:21.749Z,24.80
2018-07-14T17:00:51.029Z,24.74
2018-07-14T17:03:20.589Z,24.85
2018-07-14T17:05:49.958Z,24.69
2018-07-14T17:08:20.111Z,24.53
2018-07-14T17:10:49.442Z,24.48
2018-07-14T17:13:18.915Z,24.66
2018-07-14T17:15:48.352Z,24.37
2018-07-14T17:18:17.755Z,24.31
2018-07-14T17:20:47.325Z,24.57
2018-07-14T17:23:16.606Z,24.68
2018-07-14T17:25:45.935Z,24.72
2018-07-14T17:28:15.256Z,24.84
2018-07-14T17:30:44.666Z,24.74
2018-07-14T17:33:13.978Z,24.54
2018-07-14T17:35:47.680Z,24.14
2018-07-14T17:38:17.102Z,24.12
2018-07-14T17:40:46.510Z,24.14
2018-07-14T17:43:15.912Z,24.26
2018-07-14T17:45:45.342Z,24.20
2018-07-14T17:48:14.727Z,24.13
2018-07-14T17:50:44.253Z,23.75
2018-07-14T17:53:16.486Z,23.93
2018-07-14T17:55:45.887Z,24.05
2018-07-14T17:58:15.362Z,23.87
2018-07-14T18:00:44.610Z,23.86
2018-07-14T18:03:13.961Z,23.83
2018-07-14T18:05:43.407Z,23.99
2018-07-14T18:08:12.887Z,23.89
2018-07-14T18:10:42.261Z,23.74
2018-07-14T18:13:11.782Z,23.67
2018-07-14T18:15:41.175Z,23.70
2018-07-14T18:18:10.533Z,23.44
2018-07-14T18:20:40.608Z,23.36
2018-07-14T18:23:10.062Z,23.41
2018-07-14T18:25:39.547Z,23.50
2018-07-14T18:28:08.902Z,23.67
2018-07-14T18:30:38.263Z,23.67
2018-07-14T18:33:07.646Z,23.66
2018-07-14T18:35:37.245Z,23.61
2018-07-14T18:38:06.695Z,23.65
2018-07-14T18:40:36.070Z,23.55
2018-07-14T18:43:05.736Z,23.65
2018-07-14T18:45:35.130Z,23.45
2018-07-14T18:48:04.512Z,23.46
2018-07-14T18:50:33.834Z,23.51
2018-07-14T18:53:03.133Z,23.44
2018-07-14T18:55:32.512Z,23.66
2018-07-14T18:58:01.855Z,23.52
2018-07-14T19:00:31.168Z,23.15
2018-07-14T19:03:00.494Z,23.25
2018-07-14T19:05:30.256Z,23.10
2018-07-14T19:07:59.597Z,23.19
2018-07-14T19:10:28.959Z,23.18
2018-07-14T19:12:58.329Z,23.14
2018-07-14T19:15:27.855Z,23.11
2018-07-14T19:17:57.236Z,22.96
2018-07-14T19:20:26.551Z,23.20
2018-07-14T19:22:55.853Z,23.16
2018-07-14T19:25:25.152Z,22.99
2018-07-14T19:27:54.670Z,22.96
2018-07-14T19:30:24.022Z,22.86
2018-07-14T19:32:53.358Z,22.87
2018-07-14T19:35:22.722Z,22.79
2018-07-14T19:37:52.317Z,22.81
2018-07-14T19:40:21.605Z,22.85
2018-07-14T19:42:51.047Z,22.85
2018-07-14T19:45:20.333Z,22.75
2018-07-14T19:47:49.786Z,22.71
2018-07-14T19:50:25.445Z,22.82
2018-07-14T19:52:54.760Z,22.94
2018-07-14T19:55:24.098Z,22.90
2018-07-14T19:57:53.438Z,22.85
2018-07-14T20:00:22.873Z,22.75
2018-07-14T20:02:52.194Z,22.76
2018-07-14T20:05:21.514Z,22.79
2018-07-14T20:07:50.894Z,22.81
2018-07-14T20:10:19.947Z,22.76
2018-07-14T20:12:49.819Z,22.78
2018-07-14T20:15:19.162Z,22.74
2018-07-14T20:17:48.538Z,22.71
2018-07-14T20:20:17.865Z,22.65
2018-07-14T20:22:47.198Z,22.53
2018-07-14T20:25:16.723Z,22.62
2018-07-14T20:27:46.052Z,22.67
2018-07-14T20:30:15.360Z,22.72
2018-07-14T20:32:44.714Z,22.75
2018-07-14T20:35:14.262Z,22.57
2018-07-14T20:37:43.604Z,22.52
2018-07-14T20:40:12.972Z,22.58
2018-07-14T20:42:42.335Z,22.48
2018-07-14T20:45:11.678Z,22.51
2018-07-14T20:47:40.970Z,22.55
2018-07-14T20:50:10.351Z,22.51
2018-07-14T20:52:39.876Z,22.40
2018-07-14T20:55:09.210Z,22.48
2018-07-14T20:57:38.605Z,22.47
2018-07-14T21:00:08.013Z,22.43
2018-07-14T21:02:37.413Z,22.36
2018-07-14T21:05:06.813Z,22.33
2018-07-14T21:07:36.151Z,22.35
2018-07-14T21:10:05.527Z,22.27
2018-07-14T21:12:35.000Z,22.34
2018-07-14T21:15:04.236Z,22.33
2018-07-14T21:17:33.532Z,22.40
2018-07-14T21:20:03.430Z,22.29
2018-07-14T21:22:32.819Z,22.45
2018-07-14T21:25:02.136Z,22.29
2018-07-14T21:27:31.519Z,22.18
2018-07-14T21:30:00.899Z,22.28
2018-07-14T21:32:30.035Z,22.40
2018-07-14T21:34:59.437Z,22.28
2018-07-14T21:37:28.755Z,22.16
2018-07-14T21:39:58.155Z,22.29
2018-07-14T21:42:27.752Z,22.16
2018-07-14T21:44:57.149Z,22.12
2018-07-14T21:47:26.581Z,22.04
2018-07-14T21:49:55.961Z,21.97
2018-07-14T21:52:25.318Z,21.81
2018-07-14T21:54:54.811Z,21.80
2018-07-14T21:57:24.391Z,21.65
2018-07-14T21:59:54.050Z,21.74
2018-07-14T22:02:23.418Z,21.66
2018-07-14T22:04:52.882Z,21.65
2018-07-14T22:07:22.263Z,21.49
2018-07-14T22:09:51.315Z,21.43
2018-07-14T22:12:20.749Z,21.39
2018-07-14T22:14:50.116Z,21.29
2018-07-14T22:17:19.382Z,21.45
2018-07-14T22:19:50.943Z,21.45
2018-07-14T22:22:20.318Z,21.49
2018-07-14T22:24:49.602Z,21.48
2018-07-14T22:27:19.327Z,21.23
2018-07-14T22:29:48.695Z,21.30
2018-07-14T22:32:18.044Z,21.26
2018-07-14T22:34:47.487Z,21.30
2018-07-14T22:37:16.818Z,21.26
2018-07-14T22:39:46.158Z,21.06
2018-07-14T22:42:15.518Z,21.04
2018-07-14T22:44:44.873Z,20.85
2018-07-14T22:47:15.246Z,20.77
2018-07-14T22:49:44.887Z,20.66
2018-07-14T22:52:14.188Z,20.53
2018-07-14T22:54:43.560Z,20.45
2018-07-14T22:57:12.935Z,20.40
2018-07-14T22:59:42.249Z,20.39
2018-07-14T23:02:11.531Z,20.35
2018-07-14T23:04:41.017Z,20.35
2018-07-14T23:07:10.325Z,20.21
2018-07-14T23:09:39.700Z,20.13
2018-07-14T23:12:09.371Z,20.07
2018-07-14T23:14:38.994Z,20.04
2018-07-14T23:17:08.291Z,19.95
2018-07-14T23:19:37.658Z,19.78
2018-07-14T23:22:07.116Z,19.71
2018-07-14T23:24:36.460Z,19.65
2018-07-14T23:27:05.759Z,19.75
2018-07-14T23:29:35.137Z,19.68
2018-07-14T23:32:04.504Z,19.65
2018-07-14T23:34:34.030Z,19.54
2018-07-14T23:37:03.371Z,19.51
2018-07-14T23:39:32.790Z,19.45
2018-07-14T23:42:03.216Z,19.47
2018-07-14T23:44:32.499Z,19.33
2018-07-14T23:47:01.876Z,19.31
2018-07-14T23:49:31.195Z,19.34
2018-07-14T23:52:00.463Z,19.36
2018-07-14T23:54:29.767Z,19.38
2018-07-14T23:56:59.261Z,19.38
2018-07-14T23:59:28.592Z,19.30
